Thunder radar more information blitzortung!


Radar de pluja more information rain snow radar


Visita la nostra xarxa de llocs de meteo:

Template documentation
and downloads

And another site



No particular awareness of the weather is required.    There are no Weather-warnings

Pagina Historial Weather Underground text

Diari Resum February 17, 2016 Unitats:  Mètric    Imperial   Tant
« Previous Dia
SegĂźent Dia »
Diari Setmana Mensual Anual Personalitzada
  Maxima: Minima: Media:
Temperatura: 12.7 °C 5.9 °C 9.5 °C
Punt de rosada: -3.6 °C -8.3 °C -6.3 °C
Humitat: 42 % 30 % 32 %
Wind Speed: 13.0 km/h 1.9 km/h 5.5 km/h
RĂ fegues de vent: 13.0 km/h - -
Vent:- - WSW
Pression baro: 1022.9 hPa 1016.8 hPa -
Precipitacions: 0.0 mm    
Historical Graphs
 
 
Dades de taula per February 17, 2016
Temps Temperatura Punt de rosada Pression baro Vent Wind Speed RĂ fegues de vent Humitat Rainfall Rate (Hourly)
10:37 6.0 °C -5.9 °C 1022.9 hPa NNW 4.2 km/h 4.2 km/h 42 % 0.0 mm
10:42 5.9 °C -6.4 °C 1022.9 hPa NNW 7.4 km/h 7.4 km/h 41 % 0.0 mm
10:47 6.3 °C -5.7 °C 1022.9 hPa ENE 5.0 km/h 5.0 km/h 42 % 0.0 mm
10:52 6.5 °C -5.8 °C 1022.9 hPa WSW 9.3 km/h 9.3 km/h 41 % 0.0 mm
10:57 6.4 °C -6.2 °C 1022.9 hPa WNW 9.3 km/h 9.3 km/h 40 % 0.0 mm
11:02 6.6 °C -6.1 °C 1021.9 hPa West 7.4 km/h 7.4 km/h 40 % 0.0 mm
11:07 6.8 °C -5.9 °C 1021.9 hPa WSW 7.4 km/h 7.4 km/h 40 % 0.0 mm
11:12 7.1 °C -5.6 °C 1021.9 hPa WSW 5.6 km/h 5.6 km/h 40 % 0.0 mm
11:17 7.3 °C -5.4 °C 1021.9 hPa SW 3.7 km/h 3.7 km/h 40 % 0.0 mm
11:22 7.7 °C -5.1 °C 1021.9 hPa West 5.6 km/h 5.6 km/h 40 % 0.0 mm
11:27 7.9 °C -4.9 °C 1021.9 hPa ESE 6.1 km/h 6.1 km/h 40 % 0.0 mm
11:37 8.0 °C -5.1 °C 1021.9 hPa East 7.4 km/h 7.4 km/h 39 % 0.0 mm
11:42 8.0 °C -5.5 °C 1021.9 hPa NNW 13.0 km/h 13.0 km/h 38 % 0.0 mm
11:47 8.3 °C -5.2 °C 1021.9 hPa NNW 3.7 km/h 3.7 km/h 38 % 0.0 mm
11:52 8.3 °C -5.2 °C 1021.9 hPa NE 7.4 km/h 7.4 km/h 38 % 0.0 mm
11:57 8.7 °C -4.8 °C 1021.9 hPa NNE 3.9 km/h 3.9 km/h 38 % 0.0 mm
12:02 8.8 °C -4.8 °C 1021.9 hPa NE 7.4 km/h 7.4 km/h 38 % 0.0 mm
12:07 8.9 °C -4.7 °C 1021.9 hPa ENE 11.1 km/h 11.1 km/h 38 % 0.0 mm
12:12 9.0 °C -4.9 °C 1021.9 hPa SW 3.7 km/h 3.7 km/h 37 % 0.0 mm
12:17 9.3 °C -4.7 °C 1021.9 hPa SSE 5.6 km/h 5.6 km/h 37 % 0.0 mm
12:22 9.4 °C -4.6 °C 1021.9 hPa SSW 3.2 km/h 3.2 km/h 37 % 0.0 mm
12:27 9.4 °C -4.9 °C 1021.9 hPa North 3.7 km/h 3.7 km/h 36 % 0.0 mm
12:32 9.3 °C -5.1 °C 1020.9 hPa WNW 5.6 km/h 5.6 km/h 36 % 0.0 mm
12:37 9.5 °C -4.8 °C 1020.9 hPa SW 3.2 km/h 3.2 km/h 36 % 0.0 mm
12:42 9.7 °C -5.1 °C 1020.9 hPa WSW 9.3 km/h 9.3 km/h 35 % 0.0 mm
12:47 9.8 °C -4.9 °C 1019.9 hPa WSW 5.8 km/h 5.8 km/h 35 % 0.0 mm
12:52 9.8 °C -4.9 °C 1019.9 hPa NW 5.6 km/h 5.6 km/h 35 % 0.0 mm
12:57 10.0 °C -4.8 °C 1019.9 hPa NNE 4.7 km/h 4.7 km/h 35 % 0.0 mm
13:02 10.1 °C -4.7 °C 1019.9 hPa WNW 4.7 km/h 4.7 km/h 35 % 0.0 mm
13:07 10.4 °C -4.4 °C 1019.9 hPa NNE 5.6 km/h 5.6 km/h 35 % 0.0 mm
13:12 10.5 °C -4.3 °C 1019.9 hPa SW 5.6 km/h 5.6 km/h 35 % 0.0 mm
13:17 10.6 °C -4.6 °C 1019.9 hPa ESE 5.6 km/h 5.6 km/h 34 % 0.0 mm
13:22 10.8 °C -4.4 °C 1019.9 hPa NNE 3.7 km/h 3.7 km/h 34 % 0.0 mm
13:27 10.8 °C -4.4 °C 1019.9 hPa SSW 7.4 km/h 7.4 km/h 34 % 0.0 mm
13:32 10.9 °C -4.8 °C 1019.9 hPa SW 9.3 km/h 9.3 km/h 33 % 0.0 mm
13:37 10.8 °C -4.8 °C 1019.9 hPa SW 3.7 km/h 3.7 km/h 33 % 0.0 mm
13:42 11.1 °C -4.6 °C 1019.9 hPa WSW 7.4 km/h 7.4 km/h 33 % 0.0 mm
13:47 11.2 °C -4.5 °C 1019.9 hPa WSW 8.7 km/h 8.7 km/h 33 % 0.0 mm
13:52 11.4 °C -4.3 °C 1019.9 hPa SW 11.1 km/h 11.1 km/h 33 % 0.0 mm
13:57 11.7 °C -4.1 °C 1019.9 hPa NNE 3.7 km/h 3.7 km/h 33 % 0.0 mm
14:02 11.5 °C -4.2 °C 1019.9 hPa WSW 9.3 km/h 9.3 km/h 33 % 0.0 mm
14:12 11.3 °C -4.4 °C 1019.9 hPa WSW 9.3 km/h 9.3 km/h 33 % 0.0 mm
14:17 11.2 °C -4.9 °C 1018.8 hPa SSW 9.3 km/h 9.3 km/h 32 % 0.0 mm
14:22 11.7 °C -4.1 °C 1018.8 hPa West 7.4 km/h 7.4 km/h 33 % 0.0 mm
14:27 11.6 °C -4.2 °C 1018.8 hPa SW 5.8 km/h 5.8 km/h 33 % 0.0 mm
14:32 11.8 °C -4.0 °C 1018.8 hPa WNW 5.6 km/h 5.6 km/h 33 % 0.0 mm
14:37 11.9 °C -3.9 °C 1018.8 hPa NNW 9.3 km/h 9.3 km/h 33 % 0.0 mm
14:42 12.0 °C -3.8 °C 1018.8 hPa South 3.7 km/h 3.7 km/h 33 % 0.0 mm
14:47 12.0 °C -4.2 °C 1018.8 hPa ENE 5.8 km/h 5.8 km/h 32 % 0.0 mm
14:52 11.9 °C -4.3 °C 1018.8 hPa WSW 6.4 km/h 6.4 km/h 32 % 0.0 mm
14:57 12.1 °C -4.1 °C 1018.8 hPa WSW 5.6 km/h 5.6 km/h 32 % 0.0 mm
15:02 12.0 °C -4.2 °C 1017.8 hPa West 7.4 km/h 7.4 km/h 32 % 0.0 mm
15:07 11.7 °C -4.5 °C 1017.8 hPa SE 7.4 km/h 7.4 km/h 32 % 0.0 mm
15:12 11.7 °C -4.5 °C 1017.8 hPa West 11.1 km/h 11.1 km/h 32 % 0.0 mm
15:17 11.7 °C -4.5 °C 1017.8 hPa NE 3.7 km/h 3.7 km/h 32 % 0.0 mm
15:27 11.8 °C -4.4 °C 1017.8 hPa NE 5.6 km/h 5.8 km/h 32 % 0.0 mm
15:32 11.9 °C -4.3 °C 1017.8 hPa West 5.6 km/h 5.6 km/h 32 % 0.0 mm
15:37 12.2 °C -4.4 °C 1017.8 hPa South 5.6 km/h 5.6 km/h 31 % 0.0 mm
15:42 12.3 °C -3.9 °C 1017.8 hPa WSW 5.6 km/h 5.6 km/h 32 % 0.0 mm
15:47 12.7 °C -3.6 °C 1017.8 hPa WNW 7.4 km/h 7.4 km/h 32 % 0.0 mm
15:57 12.6 °C -4.1 °C 1017.8 hPa NW 7.4 km/h 7.4 km/h 31 % 0.0 mm
16:02 12.7 °C -4.0 °C 1017.8 hPa NNW 7.4 km/h 7.4 km/h 31 % 0.0 mm
16:07 12.6 °C -4.1 °C 1017.8 hPa ENE 3.7 km/h 3.7 km/h 31 % 0.0 mm
16:12 12.6 °C -4.1 °C 1017.8 hPa West 4.2 km/h 4.2 km/h 31 % 0.0 mm
16:17 12.7 °C -4.0 °C 1017.8 hPa SSW 8.7 km/h 8.7 km/h 31 % 0.0 mm
16:22 12.5 °C -4.2 °C 1017.8 hPa West 11.9 km/h 11.9 km/h 31 % 0.0 mm
16:27 12.4 °C -4.3 °C 1017.8 hPa West 7.4 km/h 7.4 km/h 31 % 0.0 mm
16:32 12.3 °C -4.4 °C 1017.8 hPa WSW 5.6 km/h 5.6 km/h 31 % 0.0 mm
16:42 11.9 °C -4.7 °C 1017.8 hPa SSW 11.1 km/h 11.1 km/h 31 % 0.0 mm
16:52 11.9 °C -4.7 °C 1017.8 hPa SW 5.3 km/h 5.3 km/h 31 % 0.0 mm
16:57 12.1 °C -4.6 °C 1017.8 hPa SW 8.7 km/h 8.7 km/h 31 % 0.0 mm
17:02 11.9 °C -4.7 °C 1017.8 hPa SW 4.2 km/h 4.2 km/h 31 % 0.0 mm
17:07 12.1 °C -4.6 °C 1017.8 hPa WSW 7.4 km/h 7.4 km/h 31 % 0.0 mm
17:12 11.8 °C -4.8 °C 1017.8 hPa SW 7.9 km/h 7.9 km/h 31 % 0.0 mm
17:17 11.7 °C -4.9 °C 1016.8 hPa WSW 13.0 km/h 13.0 km/h 31 % 0.0 mm
17:22 11.1 °C -5.4 °C 1016.8 hPa WSW 13.0 km/h 13.0 km/h 31 % 0.0 mm
17:27 11.1 °C -5.4 °C 1016.8 hPa WSW 10.3 km/h 10.3 km/h 31 % 0.0 mm
17:32 11.1 °C -5.4 °C 1016.8 hPa SW 10.3 km/h 10.3 km/h 31 % 0.0 mm
17:42 10.8 °C -5.7 °C 1016.8 hPa SW 5.6 km/h 5.6 km/h 31 % 0.0 mm
17:47 10.7 °C -5.8 °C 1017.8 hPa WSW 7.4 km/h 7.4 km/h 31 % 0.0 mm
17:52 10.4 °C -6.4 °C 1017.8 hPa West 7.4 km/h 7.4 km/h 30 % 0.0 mm
17:57 10.2 °C -6.6 °C 1017.8 hPa NNW 7.4 km/h 7.4 km/h 30 % 0.0 mm
18:02 10.1 °C -6.7 °C 1017.8 hPa West 5.6 km/h 5.6 km/h 30 % 0.0 mm
18:07 9.8 °C -7.0 °C 1017.8 hPa SW 5.6 km/h 5.6 km/h 30 % 0.0 mm
18:12 9.7 °C -7.1 °C 1017.8 hPa SW 3.9 km/h 3.9 km/h 30 % 0.0 mm
18:22 9.0 °C -7.7 °C 1017.8 hPa WSW 5.6 km/h 5.6 km/h 30 % 0.0 mm
18:27 8.8 °C -7.8 °C 1017.8 hPa WSW 3.7 km/h 3.7 km/h 30 % 0.0 mm
18:33 8.6 °C -8.1 °C 1017.8 hPa WSW 1.9 km/h 1.9 km/h 30 % 0.0 mm
18:42 8.3 °C -8.3 °C 1017.8 hPa WNW 3.7 km/h 3.9 km/h 30 % 0.0 mm
18:52 8.3 °C -8.3 °C 1017.8 hPa WNW 3.7 km/h 3.9 km/h 30 % 0.0 mm
18:58 8.3 °C -8.3 °C 1017.8 hPa WNW 3.7 km/h 3.9 km/h 30 % 0.0 mm
19:03 8.3 °C -8.3 °C 1017.8 hPa WNW 3.7 km/h 3.9 km/h 30 % 0.0 mm
19:08 8.3 °C -8.3 °C 1017.8 hPa WNW 3.7 km/h 3.9 km/h 30 % 0.0 mm
19:13 8.3 °C -8.3 °C 1017.8 hPa WNW 3.7 km/h 3.9 km/h 30 % 0.0 mm
19:18 8.3 °C -8.3 °C 1017.8 hPa WNW 3.7 km/h 3.9 km/h 30 % 0.0 mm
19:23 8.3 °C -8.3 °C 1017.8 hPa WNW 3.7 km/h 3.9 km/h 30 % 0.0 mm
19:28 8.3 °C -8.3 °C 1017.8 hPa WNW 3.7 km/h 3.9 km/h 30 % 0.0 mm
19:33 8.3 °C -8.3 °C 1017.8 hPa WNW 3.7 km/h 3.9 km/h 30 % 0.0 mm
19:38 8.3 °C -8.3 °C 1017.8 hPa WNW 3.7 km/h 3.9 km/h 30 % 0.0 mm
19:43 8.3 °C -8.3 °C 1017.8 hPa WNW 3.7 km/h 3.9 km/h 30 % 0.0 mm
19:48 8.3 °C -8.3 °C 1017.8 hPa WNW 3.7 km/h 3.9 km/h 30 % 0.0 mm
19:53 8.3 °C -8.3 °C 1017.8 hPa WNW 3.7 km/h 3.9 km/h 30 % 0.0 mm
19:58 8.3 °C -8.3 °C 1017.8 hPa WNW 3.7 km/h 3.9 km/h 30 % 0.0 mm
20:03 8.3 °C -8.3 °C 1017.8 hPa WNW 3.7 km/h 3.9 km/h 30 % 0.0 mm
20:13 8.3 °C -8.3 °C 1017.8 hPa WNW 3.7 km/h 3.9 km/h 30 % 0.0 mm
20:18 8.3 °C -8.3 °C 1017.8 hPa WNW 3.7 km/h 3.9 km/h 30 % 0.0 mm
20:23 8.3 °C -8.3 °C 1017.8 hPa WNW 3.7 km/h 3.9 km/h 30 % 0.0 mm
20:28 8.3 °C -8.3 °C 1017.8 hPa WNW 3.7 km/h 3.9 km/h 30 % 0.0 mm
20:33 8.3 °C -8.3 °C 1017.8 hPa WNW 3.7 km/h 3.9 km/h 30 % 0.0 mm
20:38 8.3 °C -8.3 °C 1017.8 hPa WNW 3.7 km/h 3.9 km/h 30 % 0.0 mm
20:43 8.3 °C -8.3 °C 1017.8 hPa WNW 3.7 km/h 3.9 km/h 30 % 0.0 mm
20:48 8.3 °C -8.3 °C 1017.8 hPa WNW 3.7 km/h 3.9 km/h 30 % 0.0 mm
20:53 8.3 °C -8.3 °C 1017.8 hPa WNW 3.7 km/h 3.9 km/h 30 % 0.0 mm
20:58 8.3 °C -8.3 °C 1017.8 hPa WNW 3.7 km/h 3.9 km/h 30 % 0.0 mm
21:03 8.3 °C -8.3 °C 1017.8 hPa WNW 3.7 km/h 3.9 km/h 30 % 0.0 mm
21:08 8.3 °C -8.3 °C 1017.8 hPa WNW 3.7 km/h 3.9 km/h 30 % 0.0 mm
21:13 8.3 °C -8.3 °C 1017.8 hPa WNW 3.7 km/h 3.9 km/h 30 % 0.0 mm
21:18 8.3 °C -8.3 °C 1017.8 hPa WNW 3.7 km/h 3.9 km/h 30 % 0.0 mm
21:23 8.3 °C -8.3 °C 1017.8 hPa WNW 3.7 km/h 3.9 km/h 30 % 0.0 mm
21:28 8.3 °C -8.3 °C 1017.8 hPa WNW 3.7 km/h 3.9 km/h 30 % 0.0 mm
21:33 8.3 °C -8.3 °C 1017.8 hPa WNW 3.7 km/h 3.9 km/h 30 % 0.0 mm
21:38 8.3 °C -8.3 °C 1017.8 hPa WNW 3.7 km/h 3.9 km/h 30 % 0.0 mm
21:43 8.3 °C -8.3 °C 1017.8 hPa WNW 3.7 km/h 3.9 km/h 30 % 0.0 mm
21:48 8.3 °C -8.3 °C 1017.8 hPa WNW 3.7 km/h 3.9 km/h 30 % 0.0 mm
21:53 8.3 °C -8.3 °C 1017.8 hPa WNW 3.7 km/h 3.9 km/h 30 % 0.0 mm
21:58 8.3 °C -8.3 °C 1017.8 hPa WNW 3.7 km/h 3.9 km/h 30 % 0.0 mm
22:03 8.3 °C -8.3 °C 1017.8 hPa WNW 3.7 km/h 3.9 km/h 30 % 0.0 mm
22:08 8.3 °C -8.3 °C 1017.8 hPa WNW 3.7 km/h 3.9 km/h 30 % 0.0 mm
22:13 8.3 °C -8.3 °C 1017.8 hPa WNW 3.7 km/h 3.9 km/h 30 % 0.0 mm
22:18 8.3 °C -8.3 °C 1017.8 hPa WNW 3.7 km/h 3.9 km/h 30 % 0.0 mm
22:23 8.3 °C -8.3 °C 1017.8 hPa WNW 3.7 km/h 3.9 km/h 30 % 0.0 mm
22:28 8.3 °C -8.3 °C 1017.8 hPa WNW 3.7 km/h 3.9 km/h 30 % 0.0 mm
22:33 8.3 °C -8.3 °C 1017.8 hPa WNW 3.7 km/h 3.9 km/h 30 % 0.0 mm
22:38 8.3 °C -8.3 °C 1017.8 hPa WNW 3.7 km/h 3.9 km/h 30 % 0.0 mm
22:43 8.3 °C -8.3 °C 1017.8 hPa WNW 3.7 km/h 3.9 km/h 30 % 0.0 mm
22:48 8.3 °C -8.3 °C 1017.8 hPa WNW 3.7 km/h 3.9 km/h 30 % 0.0 mm
22:53 8.3 °C -8.3 °C 1017.8 hPa WNW 3.7 km/h 3.9 km/h 30 % 0.0 mm
22:58 8.3 °C -8.3 °C 1017.8 hPa WNW 3.7 km/h 3.9 km/h 30 % 0.0 mm
23:03 8.3 °C -8.3 °C 1017.8 hPa WNW 3.7 km/h 3.9 km/h 30 % 0.0 mm
23:13 8.3 °C -8.3 °C 1017.8 hPa WNW 3.7 km/h 3.9 km/h 30 % 0.0 mm
23:18 8.3 °C -8.3 °C 1017.8 hPa WNW 3.7 km/h 3.9 km/h 30 % 0.0 mm
23:23 8.3 °C -8.3 °C 1017.8 hPa WNW 3.7 km/h 3.9 km/h 30 % 0.0 mm
23:28 8.3 °C -8.3 °C 1017.8 hPa WNW 3.7 km/h 3.9 km/h 30 % 0.0 mm
23:38 8.3 °C -8.3 °C 1017.8 hPa WNW 3.7 km/h 3.9 km/h 30 % 0.0 mm
23:43 8.3 °C -8.3 °C 1017.8 hPa WNW 3.7 km/h 3.9 km/h 30 % 0.0 mm
23:48 8.3 °C -8.3 °C 1017.8 hPa WNW 3.7 km/h 3.9 km/h 30 % 0.0 mm
Meteo Sesrovires
Elogis d' Weather Underground - 3.25 mb

Guio original per  Jim McMurry - jmcmurry@mwt.net Adaptat per a la plantilla per  Wim van der Kuil - Leuven-Template.eu

Trobareu la nostra informacio del temps tambe a:

Weather Underground

AWEKAS